sensor_id;sensor_type;location;lat;lon;timestamp;P1;durP1;ratioP1;P2;durP2;ratioP2
4676;SDS011;2352;48.180;11.478;2023-02-17T00:02:33;5.77;;;5.20;;
4676;SDS011;2352;48.180;11.478;2023-02-17T00:05:37;5.23;;;4.70;;
4676;SDS011;2352;48.180;11.478;2023-02-17T00:08:40;5.93;;;5.43;;
4676;SDS011;2352;48.180;11.478;2023-02-17T00:11:43;5.47;;;4.97;;
4676;SDS011;2352;48.180;11.478;2023-02-17T00:14:47;5.50;;;5.00;;
4676;SDS011;2352;48.180;11.478;2023-02-17T00:17:50;7.50;;;5.20;;
4676;SDS011;2352;48.180;11.478;2023-02-17T00:20:53;4.63;;;4.23;;
4676;SDS011;2352;48.180;11.478;2023-02-17T00:23:56;5.60;;;4.50;;
4676;SDS011;2352;48.180;11.478;2023-02-17T00:27:00;4.87;;;4.27;;
4676;SDS011;2352;48.180;11.478;2023-02-17T00:30:04;5.53;;;5.00;;
4676;SDS011;2352;48.180;11.478;2023-02-17T00:33:09;4.63;;;4.23;;
4676;SDS011;2352;48.180;11.478;2023-02-17T00:36:12;5.77;;;4.83;;
4676;SDS011;2352;48.180;11.478;2023-02-17T00:39:17;5.33;;;4.80;;
4676;SDS011;2352;48.180;11.478;2023-02-17T00:42:20;4.60;;;4.20;;
4676;SDS011;2352;48.180;11.478;2023-02-17T00:45:24;5.13;;;4.17;;
4676;SDS011;2352;48.180;11.478;2023-02-17T00:48:27;7.37;;;5.27;;
4676;SDS011;2352;48.180;11.478;2023-02-17T00:51:30;5.40;;;4.90;;
4676;SDS011;2352;48.180;11.478;2023-02-17T00:54:33;7.27;;;5.90;;
4676;SDS011;2352;48.180;11.478;2023-02-17T00:57:35;6.33;;;5.67;;
4676;SDS011;2352;48.180;11.478;2023-02-17T01:00:40;5.20;;;4.70;;
4676;SDS011;2352;48.180;11.478;2023-02-17T01:03:42;7.20;;;5.33;;
4676;SDS011;2352;48.180;11.478;2023-02-17T01:06:45;6.70;;;5.37;;
4676;SDS011;2352;48.180;11.478;2023-02-17T01:09:48;6.07;;;4.57;;
4676;SDS011;2352;48.180;11.478;2023-02-17T01:12:51;5.90;;;5.40;;
4676;SDS011;2352;48.180;11.478;2023-02-17T01:15:55;5.67;;;4.97;;
4676;SDS011;2352;48.180;11.478;2023-02-17T01:18:58;6.53;;;5.93;;
4676;SDS011;2352;48.180;11.478;2023-02-17T01:22:01;6.57;;;5.97;;
4676;SDS011;2352;48.180;11.478;2023-02-17T01:25:04;6.43;;;5.83;;
4676;SDS011;2352;48.180;11.478;2023-02-17T01:28:08;7.47;;;6.07;;
4676;SDS011;2352;48.180;11.478;2023-02-17T01:31:16;7.10;;;6.40;;
4676;SDS011;2352;48.180;11.478;2023-02-17T01:34:20;10.33;;;5.97;;
4676;SDS011;2352;48.180;11.478;2023-02-17T01:37:23;9.03;;;5.70;;
4676;SDS011;2352;48.180;11.478;2023-02-17T01:40:25;6.13;;;5.63;;
4676;SDS011;2352;48.180;11.478;2023-02-17T01:43:28;7.30;;;5.97;;
4676;SDS011;2352;48.180;11.478;2023-02-17T01:46:32;9.90;;;5.97;;
4676;SDS011;2352;48.180;11.478;2023-02-17T01:49:37;8.77;;;5.87;;
4676;SDS011;2352;48.180;11.478;2023-02-17T01:52:41;6.23;;;5.63;;
4676;SDS011;2352;48.180;11.478;2023-02-17T01:55:45;9.43;;;5.97;;
4676;SDS011;2352;48.180;11.478;2023-02-17T01:58:49;6.17;;;5.57;;
4676;SDS011;2352;48.180;11.478;2023-02-17T02:01:58;5.43;;;4.97;;
4676;SDS011;2352;48.180;11.478;2023-02-17T02:05:03;5.30;;;4.80;;
4676;SDS011;2352;48.180;11.478;2023-02-17T02:08:06;7.67;;;5.17;;
4676;SDS011;2352;48.180;11.478;2023-02-17T02:11:10;6.23;;;5.53;;
4676;SDS011;2352;48.180;11.478;2023-02-17T02:14:13;8.53;;;5.03;;
4676;SDS011;2352;48.180;11.478;2023-02-17T02:17:20;5.63;;;4.93;;
4676;SDS011;2352;48.180;11.478;2023-02-17T02:20:43;6.50;;;4.87;;
4676;SDS011;2352;48.180;11.478;2023-02-17T02:24:22;5.73;;;5.13;;
4676;SDS011;2352;48.180;11.478;2023-02-17T02:27:39;5.80;;;5.30;;
4676;SDS011;2352;48.180;11.478;2023-02-17T02:30:56;4.07;;;3.67;;
4676;SDS011;2352;48.180;11.478;2023-02-17T02:34:10;5.37;;;4.87;;
4676;SDS011;2352;48.180;11.478;2023-02-17T02:37:19;5.37;;;4.87;;
4676;SDS011;2352;48.180;11.478;2023-02-17T02:40:32;5.47;;;4.90;;
4676;SDS011;2352;48.180;11.478;2023-02-17T02:43:37;6.07;;;5.30;;
4676;SDS011;2352;48.180;11.478;2023-02-17T02:46:40;5.27;;;4.77;;
4676;SDS011;2352;48.180;11.478;2023-02-17T02:49:44;8.03;;;4.50;;
4676;SDS011;2352;48.180;11.478;2023-02-17T02:52:51;5.53;;;4.20;;
4676;SDS011;2352;48.180;11.478;2023-02-17T02:56:04;5.70;;;5.20;;
4676;SDS011;2352;48.180;11.478;2023-02-17T02:59:17;5.87;;;5.30;;
4676;SDS011;2352;48.180;11.478;2023-02-17T03:02:33;4.83;;;4.33;;
4676;SDS011;2352;48.180;11.478;2023-02-17T03:05:46;5.03;;;4.50;;
4676;SDS011;2352;48.180;11.478;2023-02-17T03:08:57;5.03;;;4.63;;
4676;SDS011;2352;48.180;11.478;2023-02-17T03:12:04;4.87;;;4.40;;
4676;SDS011;2352;48.180;11.478;2023-02-17T03:15:09;8.13;;;4.90;;
4676;SDS011;2352;48.180;11.478;2023-02-17T03:18:15;4.80;;;4.40;;
4676;SDS011;2352;48.180;11.478;2023-02-17T03:21:20;4.07;;;3.77;;
4676;SDS011;2352;48.180;11.478;2023-02-17T03:24:23;4.70;;;4.07;;
4676;SDS011;2352;48.180;11.478;2023-02-17T03:27:26;5.33;;;4.83;;
4676;SDS011;2352;48.180;11.478;2023-02-17T03:30:29;5.77;;;4.37;;
4676;SDS011;2352;48.180;11.478;2023-02-17T03:33:32;4.43;;;4.13;;
4676;SDS011;2352;48.180;11.478;2023-02-17T03:36:36;4.47;;;4.10;;
4676;SDS011;2352;48.180;11.478;2023-02-17T03:39:39;4.37;;;3.37;;
4676;SDS011;2352;48.180;11.478;2023-02-17T03:42:42;4.80;;;4.40;;
4676;SDS011;2352;48.180;11.478;2023-02-17T03:45:44;6.80;;;5.17;;
4676;SDS011;2352;48.180;11.478;2023-02-17T03:48:47;4.03;;;3.73;;
4676;SDS011;2352;48.180;11.478;2023-02-17T03:51:53;5.30;;;4.40;;
4676;SDS011;2352;48.180;11.478;2023-02-17T03:54:58;3.97;;;3.67;;
4676;SDS011;2352;48.180;11.478;2023-02-17T03:58:01;7.07;;;4.00;;
4676;SDS011;2352;48.180;11.478;2023-02-17T04:01:04;5.17;;;4.13;;
4676;SDS011;2352;48.180;11.478;2023-02-17T04:04:07;3.97;;;3.57;;
4676;SDS011;2352;48.180;11.478;2023-02-17T04:07:11;3.70;;;3.40;;
4676;SDS011;2352;48.180;11.478;2023-02-17T04:10:15;4.07;;;3.67;;
4676;SDS011;2352;48.180;11.478;2023-02-17T04:13:18;8.90;;;3.70;;
4676;SDS011;2352;48.180;11.478;2023-02-17T04:16:21;3.57;;;3.27;;
4676;SDS011;2352;48.180;11.478;2023-02-17T04:19:24;3.57;;;3.27;;
4676;SDS011;2352;48.180;11.478;2023-02-17T04:22:28;3.20;;;3.00;;
4676;SDS011;2352;48.180;11.478;2023-02-17T04:25:32;2.83;;;2.63;;
4676;SDS011;2352;48.180;11.478;2023-02-17T04:28:36;3.77;;;3.37;;
4676;SDS011;2352;48.180;11.478;2023-02-17T04:31:40;2.80;;;2.60;;
4676;SDS011;2352;48.180;11.478;2023-02-17T04:34:43;3.40;;;2.80;;
4676;SDS011;2352;48.180;11.478;2023-02-17T04:37:47;4.97;;;2.40;;
4676;SDS011;2352;48.180;11.478;2023-02-17T04:40:49;3.27;;;2.63;;
4676;SDS011;2352;48.180;11.478;2023-02-17T04:43:53;2.90;;;2.50;;
4676;SDS011;2352;48.180;11.478;2023-02-17T04:46:56;7.13;;;2.87;;
4676;SDS011;2352;48.180;11.478;2023-02-17T04:49:59;2.97;;;2.63;;
4676;SDS011;2352;48.180;11.478;2023-02-17T04:53:03;3.03;;;2.73;;
4676;SDS011;2352;48.180;11.478;2023-02-17T04:56:06;3.80;;;3.40;;
4676;SDS011;2352;48.180;11.478;2023-02-17T04:59:09;10.30;;;3.93;;
4676;SDS011;2352;48.180;11.478;2023-02-17T05:02:11;8.10;;;7.30;;
4676;SDS011;2352;48.180;11.478;2023-02-17T05:05:14;8.13;;;7.43;;
4676;SDS011;2352;48.180;11.478;2023-02-17T05:08:20;4.37;;;3.97;;
4676;SDS011;2352;48.180;11.478;2023-02-17T05:11:23;3.83;;;3.40;;
4676;SDS011;2352;48.180;11.478;2023-02-17T05:14:26;3.43;;;3.13;;
4676;SDS011;2352;48.180;11.478;2023-02-17T05:17:28;4.67;;;3.63;;
4676;SDS011;2352;48.180;11.478;2023-02-17T05:20:31;3.33;;;2.97;;
4676;SDS011;2352;48.180;11.478;2023-02-17T05:23:35;3.73;;;3.30;;
4676;SDS011;2352;48.180;11.478;2023-02-17T05:26:41;4.33;;;3.23;;
4676;SDS011;2352;48.180;11.478;2023-02-17T05:29:44;5.17;;;3.60;;
4676;SDS011;2352;48.180;11.478;2023-02-17T05:32:47;4.13;;;2.70;;
4676;SDS011;2352;48.180;11.478;2023-02-17T05:35:49;4.93;;;3.87;;
4676;SDS011;2352;48.180;11.478;2023-02-17T05:38:54;7.47;;;3.43;;
4676;SDS011;2352;48.180;11.478;2023-02-17T05:41:56;7.80;;;3.80;;
4676;SDS011;2352;48.180;11.478;2023-02-17T05:44:59;2.90;;;2.70;;
4676;SDS011;2352;48.180;11.478;2023-02-17T05:48:02;7.10;;;3.37;;
4676;SDS011;2352;48.180;11.478;2023-02-17T05:51:05;2.97;;;2.67;;
4676;SDS011;2352;48.180;11.478;2023-02-17T05:54:10;4.33;;;2.63;;
4676;SDS011;2352;48.180;11.478;2023-02-17T05:57:12;8.27;;;2.80;;
4676;SDS011;2352;48.180;11.478;2023-02-17T06:00:15;6.43;;;2.90;;
4676;SDS011;2352;48.180;11.478;2023-02-17T06:03:18;6.53;;;3.20;;
4676;SDS011;2352;48.180;11.478;2023-02-17T06:06:21;3.20;;;2.90;;
4676;SDS011;2352;48.180;11.478;2023-02-17T06:09:25;4.00;;;3.20;;
4676;SDS011;2352;48.180;11.478;2023-02-17T06:12:29;4.10;;;3.80;;
4676;SDS011;2352;48.180;11.478;2023-02-17T06:15:31;4.10;;;3.57;;
4676;SDS011;2352;48.180;11.478;2023-02-17T06:18:34;6.27;;;3.63;;
4676;SDS011;2352;48.180;11.478;2023-02-17T06:21:37;3.57;;;3.27;;
4676;SDS011;2352;48.180;11.478;2023-02-17T06:24:42;8.37;;;4.93;;
4676;SDS011;2352;48.180;11.478;2023-02-17T06:27:44;5.17;;;4.67;;
4676;SDS011;2352;48.180;11.478;2023-02-17T06:30:47;3.47;;;3.17;;
4676;SDS011;2352;48.180;11.478;2023-02-17T06:33:50;4.90;;;3.00;;
4676;SDS011;2352;48.180;11.478;2023-02-17T06:36:53;4.80;;;3.00;;
4676;SDS011;2352;48.180;11.478;2023-02-17T06:39:58;5.23;;;3.90;;
4676;SDS011;2352;48.180;11.478;2023-02-17T06:43:00;3.27;;;2.37;;
4676;SDS011;2352;48.180;11.478;2023-02-17T06:46:03;3.07;;;2.87;;
4676;SDS011;2352;48.180;11.478;2023-02-17T06:49:07;6.53;;;3.37;;
4676;SDS011;2352;48.180;11.478;2023-02-17T06:52:09;4.20;;;3.67;;
4676;SDS011;2352;48.180;11.478;2023-02-17T06:55:14;13.53;;;5.27;;
4676;SDS011;2352;48.180;11.478;2023-02-17T06:58:16;9.50;;;4.63;;
4676;SDS011;2352;48.180;11.478;2023-02-17T07:01:20;12.50;;;5.10;;
4676;SDS011;2352;48.180;11.478;2023-02-17T07:04:26;5.30;;;4.50;;
4676;SDS011;2352;48.180;11.478;2023-02-17T07:07:28;10.00;;;3.40;;
4676;SDS011;2352;48.180;11.478;2023-02-17T07:10:33;7.00;;;3.37;;
4676;SDS011;2352;48.180;11.478;2023-02-17T07:13:36;3.40;;;2.90;;
4676;SDS011;2352;48.180;11.478;2023-02-17T07:16:38;7.63;;;4.33;;
4676;SDS011;2352;48.180;11.478;2023-02-17T07:19:42;8.50;;;2.63;;
4676;SDS011;2352;48.180;11.478;2023-02-17T07:22:44;4.43;;;3.03;;
4676;SDS011;2352;48.180;11.478;2023-02-17T07:25:49;6.73;;;3.37;;
4676;SDS011;2352;48.180;11.478;2023-02-17T07:28:51;5.20;;;3.47;;
4676;SDS011;2352;48.180;11.478;2023-02-17T07:31:54;7.90;;;2.57;;
4676;SDS011;2352;48.180;11.478;2023-02-17T07:34:57;5.07;;;3.43;;
4676;SDS011;2352;48.180;11.478;2023-02-17T07:38:00;5.47;;;3.27;;
4676;SDS011;2352;48.180;11.478;2023-02-17T07:41:05;7.57;;;2.87;;
4676;SDS011;2352;48.180;11.478;2023-02-17T07:44:08;7.60;;;3.83;;
4676;SDS011;2352;48.180;11.478;2023-02-17T07:47:12;8.57;;;3.87;;
4676;SDS011;2352;48.180;11.478;2023-02-17T07:50:15;4.20;;;3.23;;
4676;SDS011;2352;48.180;11.478;2023-02-17T07:53:18;6.27;;;3.73;;
4676;SDS011;2352;48.180;11.478;2023-02-17T07:56:22;4.80;;;2.53;;
4676;SDS011;2352;48.180;11.478;2023-02-17T07:59:25;6.03;;;3.20;;
4676;SDS011;2352;48.180;11.478;2023-02-17T08:02:28;9.23;;;3.97;;
4676;SDS011;2352;48.180;11.478;2023-02-17T08:05:31;4.83;;;3.43;;
4676;SDS011;2352;48.180;11.478;2023-02-17T08:08:34;3.93;;;2.57;;
4676;SDS011;2352;48.180;11.478;2023-02-17T08:11:55;5.77;;;2.70;;
4676;SDS011;2352;48.180;11.478;2023-02-17T08:15:15;4.63;;;3.60;;
4676;SDS011;2352;48.180;11.478;2023-02-17T08:18:18;7.87;;;2.33;;
4676;SDS011;2352;48.180;11.478;2023-02-17T08:21:21;4.87;;;3.10;;
4676;SDS011;2352;48.180;11.478;2023-02-17T08:24:24;6.33;;;3.00;;
4676;SDS011;2352;48.180;11.478;2023-02-17T08:27:28;9.40;;;3.00;;
4676;SDS011;2352;48.180;11.478;2023-02-17T08:30:33;8.43;;;3.43;;
4676;SDS011;2352;48.180;11.478;2023-02-17T08:33:37;6.90;;;3.17;;
4676;SDS011;2352;48.180;11.478;2023-02-17T08:36:39;6.40;;;3.10;;
4676;SDS011;2352;48.180;11.478;2023-02-17T08:39:42;3.97;;;2.60;;
4676;SDS011;2352;48.180;11.478;2023-02-17T08:42:46;3.77;;;2.37;;
4676;SDS011;2352;48.180;11.478;2023-02-17T08:45:49;4.80;;;3.50;;
4676;SDS011;2352;48.180;11.478;2023-02-17T08:48:52;4.87;;;2.50;;
4676;SDS011;2352;48.180;11.478;2023-02-17T08:51:56;4.87;;;2.93;;
4676;SDS011;2352;48.180;11.478;2023-02-17T08:54:59;5.13;;;2.93;;
4676;SDS011;2352;48.180;11.478;2023-02-17T08:58:04;7.33;;;2.53;;
4676;SDS011;2352;48.180;11.478;2023-02-17T09:01:07;5.83;;;2.80;;
4676;SDS011;2352;48.180;11.478;2023-02-17T09:04:10;4.43;;;2.90;;
4676;SDS011;2352;48.180;11.478;2023-02-17T09:07:14;5.47;;;2.63;;
4676;SDS011;2352;48.180;11.478;2023-02-17T09:10:17;4.87;;;2.77;;
4676;SDS011;2352;48.180;11.478;2023-02-17T09:13:21;9.10;;;4.00;;
4676;SDS011;2352;48.180;11.478;2023-02-17T09:16:24;4.23;;;3.83;;
4676;SDS011;2352;48.180;11.478;2023-02-17T09:19:27;4.77;;;3.20;;
4676;SDS011;2352;48.180;11.478;2023-02-17T09:22:30;8.27;;;3.17;;
4676;SDS011;2352;48.180;11.478;2023-02-17T09:25:33;6.20;;;4.33;;
4676;SDS011;2352;48.180;11.478;2023-02-17T09:28:37;6.33;;;2.60;;
4676;SDS011;2352;48.180;11.478;2023-02-17T09:31:40;3.43;;;2.27;;
4676;SDS011;2352;48.180;11.478;2023-02-17T09:34:44;4.47;;;2.40;;
4676;SDS011;2352;48.180;11.478;2023-02-17T09:37:51;4.93;;;3.00;;
4676;SDS011;2352;48.180;11.478;2023-02-17T09:40:54;6.97;;;3.23;;
4676;SDS011;2352;48.180;11.478;2023-02-17T09:44:03;6.47;;;2.90;;
4676;SDS011;2352;48.180;11.478;2023-02-17T09:47:09;4.57;;;3.10;;
4676;SDS011;2352;48.180;11.478;2023-02-17T09:50:18;7.20;;;2.77;;
4676;SDS011;2352;48.180;11.478;2023-02-17T09:53:24;5.73;;;2.73;;
4676;SDS011;2352;48.180;11.478;2023-02-17T09:56:32;5.73;;;2.70;;
4676;SDS011;2352;48.180;11.478;2023-02-17T09:59:40;3.30;;;2.43;;
4676;SDS011;2352;48.180;11.478;2023-02-17T10:02:48;5.23;;;3.20;;
4676;SDS011;2352;48.180;11.478;2023-02-17T10:05:59;4.53;;;3.00;;
4676;SDS011;2352;48.180;11.478;2023-02-17T10:09:10;3.73;;;2.83;;
4676;SDS011;2352;48.180;11.478;2023-02-17T10:12:17;5.03;;;3.20;;
4676;SDS011;2352;48.180;11.478;2023-02-17T10:15:25;2.70;;;2.17;;
4676;SDS011;2352;48.180;11.478;2023-02-17T10:18:32;4.10;;;2.40;;
4676;SDS011;2352;48.180;11.478;2023-02-17T10:21:39;2.73;;;2.53;;
4676;SDS011;2352;48.180;11.478;2023-02-17T10:24:45;3.63;;;1.60;;
4676;SDS011;2352;48.180;11.478;2023-02-17T10:27:50;2.73;;;2.53;;
4676;SDS011;2352;48.180;11.478;2023-02-17T10:31:00;6.67;;;3.07;;
4676;SDS011;2352;48.180;11.478;2023-02-17T10:34:10;3.83;;;2.73;;
4676;SDS011;2352;48.180;11.478;2023-02-17T10:37:17;4.07;;;2.27;;
4676;SDS011;2352;48.180;11.478;2023-02-17T10:40:26;4.53;;;2.33;;
4676;SDS011;2352;48.180;11.478;2023-02-17T10:43:30;4.87;;;2.40;;
4676;SDS011;2352;48.180;11.478;2023-02-17T10:46:36;4.40;;;2.40;;
4676;SDS011;2352;48.180;11.478;2023-02-17T10:49:42;4.07;;;2.47;;
4676;SDS011;2352;48.180;11.478;2023-02-17T10:52:48;2.23;;;2.03;;
4676;SDS011;2352;48.180;11.478;2023-02-17T10:55:53;3.60;;;2.00;;
4676;SDS011;2352;48.180;11.478;2023-02-17T10:59:02;3.13;;;2.07;;
4676;SDS011;2352;48.180;11.478;2023-02-17T11:02:15;3.03;;;2.23;;
4676;SDS011;2352;48.180;11.478;2023-02-17T11:05:21;9.97;;;2.30;;
4676;SDS011;2352;48.180;11.478;2023-02-17T11:08:30;5.10;;;2.23;;
4676;SDS011;2352;48.180;11.478;2023-02-17T11:11:35;3.50;;;1.63;;
4676;SDS011;2352;48.180;11.478;2023-02-17T11:14:42;4.87;;;1.97;;
4676;SDS011;2352;48.180;11.478;2023-02-17T11:17:47;3.90;;;2.23;;
4676;SDS011;2352;48.180;11.478;2023-02-17T11:20:58;4.13;;;1.73;;
4676;SDS011;2352;48.180;11.478;2023-02-17T11:24:04;4.83;;;2.60;;
4676;SDS011;2352;48.180;11.478;2023-02-17T11:27:08;9.50;;;2.80;;
4676;SDS011;2352;48.180;11.478;2023-02-17T11:30:14;5.23;;;2.27;;
4676;SDS011;2352;48.180;11.478;2023-02-17T11:33:21;4.60;;;1.73;;
4676;SDS011;2352;48.180;11.478;2023-02-17T11:36:30;4.97;;;1.60;;
4676;SDS011;2352;48.180;11.478;2023-02-17T11:39:36;3.90;;;1.57;;
4676;SDS011;2352;48.180;11.478;2023-02-17T11:42:40;2.13;;;1.80;;
4676;SDS011;2352;48.180;11.478;2023-02-17T11:45:44;2.20;;;1.87;;
4676;SDS011;2352;48.180;11.478;2023-02-17T11:48:59;2.53;;;2.07;;
4676;SDS011;2352;48.180;11.478;2023-02-17T11:52:11;2.10;;;1.70;;
4676;SDS011;2352;48.180;11.478;2023-02-17T11:55:26;2.37;;;1.67;;
4676;SDS011;2352;48.180;11.478;2023-02-17T11:58:43;5.13;;;1.97;;
4676;SDS011;2352;48.180;11.478;2023-02-17T12:02:16;3.87;;;2.00;;
4676;SDS011;2352;48.180;11.478;2023-02-17T12:05:24;1.90;;;1.43;;
4676;SDS011;2352;48.180;11.478;2023-02-17T12:08:33;6.30;;;2.07;;
4676;SDS011;2352;48.180;11.478;2023-02-17T12:11:48;3.80;;;1.43;;
4676;SDS011;2352;48.180;11.478;2023-02-17T12:15:02;3.57;;;1.87;;
4676;SDS011;2352;48.180;11.478;2023-02-17T12:18:23;2.70;;;1.70;;
4676;SDS011;2352;48.180;11.478;2023-02-17T12:21:46;2.87;;;1.87;;
4676;SDS011;2352;48.180;11.478;2023-02-17T12:28:31;2.77;;;2.20;;
4676;SDS011;2352;48.180;11.478;2023-02-17T12:31:50;4.43;;;1.67;;
4676;SDS011;2352;48.180;11.478;2023-02-17T12:35:13;1.80;;;1.33;;
4676;SDS011;2352;48.180;11.478;2023-02-17T12:38:25;5.40;;;2.00;;
4676;SDS011;2352;48.180;11.478;2023-02-17T12:41:32;2.00;;;1.90;;
4676;SDS011;2352;48.180;11.478;2023-02-17T12:44:39;4.70;;;2.40;;
4676;SDS011;2352;48.180;11.478;2023-02-17T12:47:46;3.10;;;2.57;;
4676;SDS011;2352;48.180;11.478;2023-02-17T12:50:56;2.67;;;2.37;;
4676;SDS011;2352;48.180;11.478;2023-02-17T12:54:05;3.00;;;1.90;;
4676;SDS011;2352;48.180;11.478;2023-02-17T12:57:14;3.17;;;1.97;;
4676;SDS011;2352;48.180;11.478;2023-02-17T13:00:21;6.30;;;1.83;;
4676;SDS011;2352;48.180;11.478;2023-02-17T13:03:27;2.00;;;1.90;;
4676;SDS011;2352;48.180;11.478;2023-02-17T13:06:31;3.47;;;1.90;;
4676;SDS011;2352;48.180;11.478;2023-02-17T13:09:40;3.30;;;1.73;;
4676;SDS011;2352;48.180;11.478;2023-02-17T13:12:54;2.67;;;2.17;;
4676;SDS011;2352;48.180;11.478;2023-02-17T13:16:01;1.67;;;1.57;;
4676;SDS011;2352;48.180;11.478;2023-02-17T13:19:07;2.13;;;1.70;;
4676;SDS011;2352;48.180;11.478;2023-02-17T13:22:10;3.67;;;2.10;;
4676;SDS011;2352;48.180;11.478;2023-02-17T13:25:29;2.23;;;1.67;;
4676;SDS011;2352;48.180;11.478;2023-02-17T13:28:34;2.07;;;1.57;;
4676;SDS011;2352;48.180;11.478;2023-02-17T13:31:45;3.93;;;1.83;;
4676;SDS011;2352;48.180;11.478;2023-02-17T13:34:57;2.20;;;1.83;;
4676;SDS011;2352;48.180;11.478;2023-02-17T13:38:02;3.13;;;1.70;;
4676;SDS011;2352;48.180;11.478;2023-02-17T13:41:06;2.67;;;1.90;;
4676;SDS011;2352;48.180;11.478;2023-02-17T13:47:33;2.83;;;1.47;;
4676;SDS011;2352;48.180;11.478;2023-02-17T13:50:42;4.00;;;2.40;;
4676;SDS011;2352;48.180;11.478;2023-02-17T13:53:49;3.50;;;1.67;;
4676;SDS011;2352;48.180;11.478;2023-02-17T13:56:53;2.10;;;1.90;;
4676;SDS011;2352;48.180;11.478;2023-02-17T14:00:07;3.73;;;2.03;;
4676;SDS011;2352;48.180;11.478;2023-02-17T14:03:13;1.83;;;1.47;;
4676;SDS011;2352;48.180;11.478;2023-02-17T14:06:22;1.50;;;1.20;;
4676;SDS011;2352;48.180;11.478;2023-02-17T14:09:29;3.17;;;1.27;;
4676;SDS011;2352;48.180;11.478;2023-02-17T14:12:35;7.00;;;2.23;;
4676;SDS011;2352;48.180;11.478;2023-02-17T14:15:47;2.93;;;1.97;;
4676;SDS011;2352;48.180;11.478;2023-02-17T14:18:59;4.47;;;1.97;;
4676;SDS011;2352;48.180;11.478;2023-02-17T14:22:03;2.83;;;1.97;;
4676;SDS011;2352;48.180;11.478;2023-02-17T14:25:07;4.07;;;2.00;;
4676;SDS011;2352;48.180;11.478;2023-02-17T14:28:18;2.70;;;2.00;;
4676;SDS011;2352;48.180;11.478;2023-02-17T14:31:23;3.63;;;1.60;;
4676;SDS011;2352;48.180;11.478;2023-02-17T14:34:27;2.73;;;1.90;;
4676;SDS011;2352;48.180;11.478;2023-02-17T14:37:31;2.30;;;1.80;;
4676;SDS011;2352;48.180;11.478;2023-02-17T14:40:36;5.23;;;1.87;;
4676;SDS011;2352;48.180;11.478;2023-02-17T14:43:41;4.50;;;1.57;;
4676;SDS011;2352;48.180;11.478;2023-02-17T14:46:44;5.23;;;1.97;;
4676;SDS011;2352;48.180;11.478;2023-02-17T14:49:47;2.77;;;2.07;;
4676;SDS011;2352;48.180;11.478;2023-02-17T14:52:50;5.73;;;2.30;;
4676;SDS011;2352;48.180;11.478;2023-02-17T14:55:54;4.13;;;1.77;;
4676;SDS011;2352;48.180;11.478;2023-02-17T14:59:01;2.13;;;1.93;;
4676;SDS011;2352;48.180;11.478;2023-02-17T15:02:05;3.43;;;2.33;;
4676;SDS011;2352;48.180;11.478;2023-02-17T15:05:12;7.30;;;1.97;;
4676;SDS011;2352;48.180;11.478;2023-02-17T15:08:16;3.13;;;1.80;;
4676;SDS011;2352;48.180;11.478;2023-02-17T15:11:23;2.50;;;2.30;;
4676;SDS011;2352;48.180;11.478;2023-02-17T15:14:31;2.67;;;2.10;;
4676;SDS011;2352;48.180;11.478;2023-02-17T15:17:34;3.17;;;1.90;;
4676;SDS011;2352;48.180;11.478;2023-02-17T15:20:37;1.70;;;1.60;;
4676;SDS011;2352;48.180;11.478;2023-02-17T15:23:42;2.53;;;1.90;;
4676;SDS011;2352;48.180;11.478;2023-02-17T15:26:44;7.37;;;1.93;;
4676;SDS011;2352;48.180;11.478;2023-02-17T15:29:49;3.53;;;1.97;;
4676;SDS011;2352;48.180;11.478;2023-02-17T15:32:52;4.70;;;2.03;;
4676;SDS011;2352;48.180;11.478;2023-02-17T15:35:55;2.20;;;2.00;;
4676;SDS011;2352;48.180;11.478;2023-02-17T15:38:58;2.07;;;1.93;;
4676;SDS011;2352;48.180;11.478;2023-02-17T15:42:02;1.90;;;1.63;;
4676;SDS011;2352;48.180;11.478;2023-02-17T15:45:10;1.73;;;1.47;;
4676;SDS011;2352;48.180;11.478;2023-02-17T15:48:19;2.10;;;1.30;;
4676;SDS011;2352;48.180;11.478;2023-02-17T15:51:24;5.60;;;2.47;;
4676;SDS011;2352;48.180;11.478;2023-02-17T15:54:27;8.00;;;2.57;;
4676;SDS011;2352;48.180;11.478;2023-02-17T15:57:30;4.97;;;2.00;;
4676;SDS011;2352;48.180;11.478;2023-02-17T16:00:34;7.60;;;2.10;;
4676;SDS011;2352;48.180;11.478;2023-02-17T16:03:37;3.63;;;1.40;;
4676;SDS011;2352;48.180;11.478;2023-02-17T16:06:40;3.90;;;1.90;;
4676;SDS011;2352;48.180;11.478;2023-02-17T16:09:43;1.83;;;1.70;;
4676;SDS011;2352;48.180;11.478;2023-02-17T16:12:46;1.47;;;1.13;;
4676;SDS011;2352;48.180;11.478;2023-02-17T16:15:52;2.03;;;1.37;;
4676;SDS011;2352;48.180;11.478;2023-02-17T16:18:57;3.20;;;1.70;;
4676;SDS011;2352;48.180;11.478;2023-02-17T16:22:01;1.50;;;1.40;;
4676;SDS011;2352;48.180;11.478;2023-02-17T16:25:03;2.00;;;1.90;;
4676;SDS011;2352;48.180;11.478;2023-02-17T16:28:07;1.70;;;1.60;;
4676;SDS011;2352;48.180;11.478;2023-02-17T16:31:16;6.23;;;1.70;;
4676;SDS011;2352;48.180;11.478;2023-02-17T16:34:20;3.30;;;1.47;;
4676;SDS011;2352;48.180;11.478;2023-02-17T16:37:24;2.10;;;1.57;;
4676;SDS011;2352;48.180;11.478;2023-02-17T16:40:28;3.70;;;1.40;;
4676;SDS011;2352;48.180;11.478;2023-02-17T16:43:33;2.23;;;1.60;;
4676;SDS011;2352;48.180;11.478;2023-02-17T16:46:37;3.13;;;1.80;;
4676;SDS011;2352;48.180;11.478;2023-02-17T16:49:41;3.90;;;1.87;;
4676;SDS011;2352;48.180;11.478;2023-02-17T16:52:48;2.47;;;1.50;;
4676;SDS011;2352;48.180;11.478;2023-02-17T16:55:52;1.70;;;1.60;;
4676;SDS011;2352;48.180;11.478;2023-02-17T16:58:56;1.77;;;1.60;;
4676;SDS011;2352;48.180;11.478;2023-02-17T17:02:00;4.47;;;1.90;;
4676;SDS011;2352;48.180;11.478;2023-02-17T17:05:03;1.30;;;1.20;;
4676;SDS011;2352;48.180;11.478;2023-02-17T17:08:06;2.33;;;1.77;;
4676;SDS011;2352;48.180;11.478;2023-02-17T17:11:12;2.23;;;1.43;;
4676;SDS011;2352;48.180;11.478;2023-02-17T17:14:16;2.37;;;1.67;;
4676;SDS011;2352;48.180;11.478;2023-02-17T17:17:23;2.83;;;2.53;;
4676;SDS011;2352;48.180;11.478;2023-02-17T17:20:28;2.00;;;1.80;;
4676;SDS011;2352;48.180;11.478;2023-02-17T17:23:34;1.47;;;1.33;;
4676;SDS011;2352;48.180;11.478;2023-02-17T17:26:37;3.00;;;1.30;;
4676;SDS011;2352;48.180;11.478;2023-02-17T17:29:43;2.93;;;1.80;;
4676;SDS011;2352;48.180;11.478;2023-02-17T17:32:48;2.17;;;1.97;;
4676;SDS011;2352;48.180;11.478;2023-02-17T17:35:51;2.23;;;2.03;;
4676;SDS011;2352;48.180;11.478;2023-02-17T17:38:55;3.20;;;1.80;;
4676;SDS011;2352;48.180;11.478;2023-02-17T17:41:58;2.00;;;1.80;;
4676;SDS011;2352;48.180;11.478;2023-02-17T17:45:01;3.20;;;1.60;;
4676;SDS011;2352;48.180;11.478;2023-02-17T17:48:05;3.97;;;1.83;;
4676;SDS011;2352;48.180;11.478;2023-02-17T17:51:08;6.60;;;1.90;;
4676;SDS011;2352;48.180;11.478;2023-02-17T17:54:13;2.93;;;2.00;;
4676;SDS011;2352;48.180;11.478;2023-02-17T17:57:16;1.87;;;1.77;;
4676;SDS011;2352;48.180;11.478;2023-02-17T18:00:19;1.60;;;1.30;;
4676;SDS011;2352;48.180;11.478;2023-02-17T18:03:23;1.53;;;1.43;;
4676;SDS011;2352;48.180;11.478;2023-02-17T18:06:27;1.30;;;1.20;;
4676;SDS011;2352;48.180;11.478;2023-02-17T18:09:33;1.60;;;1.47;;
4676;SDS011;2352;48.180;11.478;2023-02-17T18:12:38;2.53;;;2.23;;
4676;SDS011;2352;48.180;11.478;2023-02-17T18:15:43;2.83;;;2.33;;
4676;SDS011;2352;48.180;11.478;2023-02-17T18:18:48;3.90;;;1.67;;
4676;SDS011;2352;48.180;11.478;2023-02-17T18:21:52;6.30;;;3.90;;
4676;SDS011;2352;48.180;11.478;2023-02-17T18:24:55;4.53;;;2.03;;
4676;SDS011;2352;48.180;11.478;2023-02-17T18:27:58;2.10;;;1.80;;
4676;SDS011;2352;48.180;11.478;2023-02-17T18:31:04;2.50;;;2.00;;
4676;SDS011;2352;48.180;11.478;2023-02-17T18:34:09;4.10;;;2.03;;
4676;SDS011;2352;48.180;11.478;2023-02-17T18:37:12;1.80;;;1.60;;
4676;SDS011;2352;48.180;11.478;2023-02-17T18:40:17;3.07;;;2.33;;
4676;SDS011;2352;48.180;11.478;2023-02-17T18:43:22;3.93;;;2.53;;
4676;SDS011;2352;48.180;11.478;2023-02-17T18:46:25;1.80;;;1.70;;
4676;SDS011;2352;48.180;11.478;2023-02-17T18:49:30;2.03;;;1.77;;
4676;SDS011;2352;48.180;11.478;2023-02-17T18:52:33;1.87;;;1.70;;
4676;SDS011;2352;48.180;11.478;2023-02-17T18:55:37;1.33;;;1.23;;
4676;SDS011;2352;48.180;11.478;2023-02-17T18:58:40;1.40;;;1.30;;
4676;SDS011;2352;48.180;11.478;2023-02-17T19:01:43;2.90;;;1.80;;